Time;durP1;ratioP1;P1;durP2;ratioP2;P2;SDS_P1;SDS_P2;PMS_P1;PMS_P2;Temp;Humidity;BMP_temperature;BMP_pressure;BME280_temperature;BME280_humidity;BME280_pressure;Samples;Min_cycle;Max_cycle;Signal;HPM_P1;HPM_P2
2023/03/27 00:00:29;;;;;;;83.20;32.08;;;;;;;5.72;85.21;99561.84;10376810;28;20084;-83
2023/03/27 00:05:30;;;;;;;84.50;33.30;;;;;;;4.99;85.57;99448.94;10376381;28;20505;-83
2023/03/27 00:10:31;;;;;;;57.72;27.88;;;;;;;5.90;86.37;99573.16;10375953;28;20091;-83
2023/03/27 00:15:33;;;;;;;41.95;20.80;;;;;;;5.45;87.04;99473.28;10376648;28;20092;-83
2023/03/27 00:20:38;;;;;;;36.35;18.90;;;;;;;5.97;87.38;99551.47;10375029;28;20184;-83
2023/03/27 00:25:39;;;;;;;30.35;15.25;;;;;;;5.40;86.09;99439.47;10375049;28;20052;-83
2023/03/27 00:30:41;;;;;;;35.35;15.48;;;;;;;5.66;87.11;99504.50;10375542;28;20513;-83
2023/03/27 00:35:46;;;;;;;40.40;17.35;;;;;;;6.12;87.49;99582.34;10375398;28;20490;-83
2023/03/27 00:40:49;;;;;;;38.63;17.58;;;;;;;5.98;86.08;99576.81;10374767;28;20038;-82
2023/03/27 00:45:55;;;;;;;28.77;14.88;;;;;;;5.37;85.83;99492.47;10375500;28;20057;-83
2023/03/27 00:50:57;;;;;;;24.58;13.15;;;;;;;5.44;85.60;99527.75;10374966;28;20038;-82
2023/03/27 00:56:02;;;;;;;23.70;13.48;;;;;;;5.58;87.38;99562.41;10374527;28;20390;-82
2023/03/27 01:01:03;;;;;;;24.77;14.73;;;;;;;5.90;87.53;99580.22;10389695;28;20042;-82
2023/03/27 01:06:04;;;;;;;20.67;12.25;;;;;;;5.67;87.80;99569.38;10389146;28;20038;-81
2023/03/27 01:11:21;;;;;;;20.40;13.38;;;;;;;5.24;88.66;99486.81;10374219;28;20120;-82
2023/03/27 01:16:44;;;;;;;27.27;14.13;;;;;;;5.73;91.83;99513.41;10374373;28;20038;-82
2023/03/27 01:21:54;;;;;;;26.08;13.82;;;;;;;6.15;90.99;99546.91;10374262;28;20571;-82
2023/03/27 01:27:14;;;;;;;26.27;14.23;;;;;;;5.89;91.05;99488.94;10373976;28;20048;-82
2023/03/27 01:32:42;;;;;;;24.10;12.73;;;;;;;5.93;89.71;99485.88;10373646;28;20441;-82
2023/03/27 01:38:04;;;;;;;24.85;14.13;;;;;;;6.51;91.54;99571.28;10387910;28;20045;-81
2023/03/27 01:43:18;;;;;;;27.60;14.50;;;;;;;6.55;90.67;99572.63;10372276;28;20072;-80
2023/03/27 01:48:51;;;;;;;32.97;15.50;;;;;;;6.56;91.82;99558.44;10372812;28;20038;-83
2023/03/27 01:54:01;;;;;;;39.30;18.77;;;;;;;5.53;90.92;99414.50;10372656;28;20085;-83
2023/03/27 01:59:17;;;;;;;27.55;14.93;;;;;;;6.32;91.77;99542.53;10371399;28;20502;-83
2023/03/27 02:04:26;;;;;;;24.05;14.00;;;;;;;6.54;91.56;99586.78;10373284;28;20505;-82
2023/03/27 02:09:43;;;;;;;25.35;13.70;;;;;;;6.54;91.36;99576.22;10371799;28;20099;-83
2023/03/27 02:14:56;;;;;;;24.67;13.07;;;;;;;6.19;91.35;99532.41;10372232;28;20042;-82
2023/03/27 02:20:10;;;;;;;27.23;14.90;;;;;;;6.04;92.10;99505.00;10369489;28;20126;-82
2023/03/27 02:25:37;;;;;;;24.48;14.73;;;;;;;6.54;93.90;99572.75;10371578;28;20513;-81
2023/03/27 02:30:51;;;;;;;27.60;12.65;;;;;;;6.13;91.32;99522.50;10372088;28;20065;-82
2023/03/27 02:36:19;;;;;;;25.10;13.18;;;;;;;6.32;91.33;99577.66;10371117;28;20081;-82
2023/03/27 02:41:46;;;;;;;33.38;16.15;;;;;;;6.33;93.32;99552.91;10361256;28;20042;-82
2023/03/27 02:46:52;;;;;;;28.55;15.85;;;;;;;6.47;91.60;99567.31;10331188;28;20063;-81
2023/03/27 02:52:02;;;;;;;34.63;14.73;;;;;;;6.39;92.93;99546.19;10331618;28;20409;-81
2023/03/27 02:57:09;;;;;;;33.80;12.90;;;;;;;6.05;91.13;99467.13;10330346;28;20129;-82
2023/03/27 03:02:28;;;;;;;33.22;14.90;;;;;;;6.56;91.78;99587.47;10330380;28;20038;-82
2023/03/27 03:07:29;;;;;;;30.95;13.85;;;;;;;6.45;90.89;99574.56;10330730;28;20034;-82
2023/03/27 03:12:30;;;;;;;29.75;13.43;;;;;;;5.81;90.48;99468.66;10330284;28;20050;-82
2023/03/27 03:17:31;;;;;;;39.40;14.57;;;;;;;5.96;91.05;99487.38;10330072;28;20045;-82
2023/03/27 03:22:31;;;;;;;60.85;21.65;;;;;;;6.56;91.31;99578.72;10333120;28;20047;-82
2023/03/27 03:27:33;;;;;;;34.92;14.90;;;;;;;6.46;91.15;99527.88;10337636;28;20046;-82
2023/03/27 03:32:34;;;;;;;25.30;14.20;;;;;;;6.66;90.79;99539.81;10357564;28;20049;-83
2023/03/27 03:37:37;;;;;;;35.35;13.75;;;;;;;7.12;91.82;99600.09;10393421;28;20108;-81
2023/03/27 03:42:49;;;;;;;25.88;13.98;;;;;;;6.68;94.35;99511.44;10375965;28;20030;-81
2023/03/27 03:47:50;;;;;;;28.02;13.98;;;;;;;7.35;92.39;99594.97;10377091;28;20053;-87
2023/03/27 03:52:51;;;;;;;22.30;13.35;;;;;;;7.51;92.47;99601.09;10376350;28;20041;-88
2023/03/27 03:57:51;;;;;;;21.67;12.73;;;;;;;7.53;92.27;99562.09;10375862;28;20045;-85
2023/03/27 04:02:53;;;;;;;29.95;13.65;;;;;;;7.94;91.74;99606.16;10375604;28;20050;-84
2023/03/27 04:07:54;;;;;;;21.38;14.13;;;;;;;8.17;91.51;99606.25;10371483;28;20061;-86
2023/03/27 04:12:57;;;;;;;23.65;12.68;;;;;;;8.40;90.85;99603.72;10372639;28;20137;-88
2023/03/27 04:17:58;;;;;;;22.08;12.75;;;;;;;8.52;90.21;99594.38;10389781;28;20042;-86
2023/03/27 04:23:03;;;;;;;23.30;13.15;;;;;;;8.75;90.17;99586.50;10389942;28;20046;-87
2023/03/27 04:28:03;;;;;;;;;;;;;;;9.16;90.25;99593.34;10374153;28;20053;-89
2023/03/27 04:33:04;;;;;;;38.17;17.02;;;;;;;8.91;88.28;99551.13;10375171;28;20373;-84
2023/03/27 04:38:05;;;;;;;36.05;14.43;;;;;;;9.11;88.25;99549.66;10374640;28;20119;-87
2023/03/27 04:43:07;;;;;;;26.02;13.75;;;;;;;9.21;87.90;99525.53;10373251;28;20065;-81
2023/03/27 04:48:08;;;;;;;23.23;13.95;;;;;;;9.71;88.15;99573.63;10371797;28;20426;-87
2023/03/27 04:53:09;;;;;;;25.05;13.50;;;;;;;10.30;87.20;99621.47;10389116;28;20065;-87
2023/03/27 04:58:11;;;;;;;29.35;13.32;;;;;;;9.80;86.62;99512.38;10372086;28;20259;-81
2023/03/27 05:03:12;;;;;;;28.67;17.48;;;;;;;10.68;86.21;99597.44;10374396;28;20038;-84
2023/03/27 05:08:13;;;;;;;26.02;15.77;;;;;;;10.57;86.01;99544.78;10374384;28;20545;-82
2023/03/27 05:13:14;;;;;;;32.20;16.13;;;;;;;11.03;85.69;99600.25;10374286;28;20044;-82
2023/03/27 05:18:15;;;;;;;25.17;14.60;;;;;;;10.84;84.99;99535.25;10373276;28;20038;-83
2023/03/27 05:23:16;;;;;;;25.25;14.23;;;;;;;11.27;84.95;99602.50;10372867;28;20100;-83
2023/03/27 05:28:17;;;;;;;25.05;14.30;;;;;;;11.27;84.46;99607.84;10372992;28;20100;-82
2023/03/27 05:33:19;;;;;;;26.83;16.13;;;;;;;10.79;84.77;99521.72;10373411;28;20128;-82
2023/03/27 05:38:21;;;;;;;21.17;13.73;;;;;;;11.00;84.51;99518.22;10373212;28;20080;-82
2023/03/27 05:43:22;;;;;;;19.92;11.80;;;;;;;11.70;83.90;99583.88;10386838;28;20041;-82
2023/03/27 05:48:23;;;;;;;21.80;12.25;;;;;;;11.76;83.32;99543.16;10373425;28;20046;-82
2023/03/27 05:53:23;;;;;;;19.30;12.18;;;;;;;11.87;83.64;99549.81;10373300;28;20140;-83
2023/03/27 05:58:24;;;;;;;26.20;14.43;;;;;;;12.00;82.87;99517.13;10372122;28;20050;-83
2023/03/27 06:03:29;;;;;;;25.08;13.82;;;;;;;12.33;82.18;99517.28;10372139;28;20062;-83
2023/03/27 06:08:30;;;;;;;19.52;10.52;;;;;;;13.20;81.15;99590.25;10371884;28;20072;-83
2023/03/27 06:13:30;;;;;;;17.60;9.43;;;;;;;13.48;80.17;99606.91;10373043;28;20099;-83
2023/03/27 06:18:31;;;;;;;13.95;8.43;;;;;;;13.74;79.05;99594.59;10372407;28;20042;-83
2023/03/27 06:23:32;;;;;;;10.90;7.10;;;;;;;14.10;77.92;99602.13;10371587;28;20046;-84
2023/03/27 06:28:33;;;;;;;9.00;6.72;;;;;;;14.29;76.85;99572.91;10372168;28;20092;-84
2023/03/27 06:33:34;;;;;;;12.30;7.03;;;;;;;14.87;75.09;99609.47;10371397;28;20044;-83
2023/03/27 06:38:36;;;;;;;9.68;6.40;;;;;;;14.70;74.33;99512.94;10373474;28;20042;-85
2023/03/27 06:43:36;;;;;;;10.57;5.70;;;;;;;14.99;73.23;99506.97;10371482;28;20058;-84
2023/03/27 06:48:38;;;;;;;6.28;4.30;;;;;;;15.46;71.40;99576.97;10371459;28;20037;-84
2023/03/27 06:53:40;;;;;;;5.53;4.13;;;;;;;15.42;69.66;99559.72;10371310;28;20046;-84
2023/03/27 06:58:40;;;;;;;28.92;9.68;;;;;;;15.21;70.56;99528.81;10379116;28;20084;-82
2023/03/27 07:03:41;;;;;;;20.27;11.02;;;;;;;15.13;71.47;99549.66;10379050;28;20092;-83
2023/03/27 07:08:42;;;;;;;27.98;14.20;;;;;;;15.37;71.93;99599.69;10378307;28;20061;-84
2023/03/27 07:13:42;;;;;;;14.95;9.90;;;;;;;14.94;72.22;99573.66;10378730;28;20037;-84
2023/03/27 07:18:43;;;;;;;13.45;9.40;;;;;;;14.65;72.70;99552.84;10378567;28;20112;-83
2023/03/27 07:23:45;;;;;;;17.40;9.07;;;;;;;14.73;72.59;99547.25;10378736;28;20505;-84
2023/03/27 07:28:46;;;;;;;13.63;8.55;;;;;;;14.86;71.71;99536.47;10378343;28;20485;-83
2023/03/27 07:33:46;;;;;;;14.18;9.73;;;;;;;15.37;71.26;99596.19;10377431;28;20038;-83
2023/03/27 07:38:47;;;;;;;18.92;10.02;;;;;;;15.55;70.83;99590.09;10377912;28;20050;-83
2023/03/27 07:43:48;;;;;;;16.38;9.15;;;;;;;15.33;70.10;99531.59;10377538;28;20433;-83
2023/03/27 07:48:49;;;;;;;15.15;9.05;;;;;;;15.94;69.51;99600.50;10377435;28;20037;-84
2023/03/27 07:53:55;;;;;;;11.40;7.88;;;;;;;15.90;69.04;99580.53;10377345;28;20416;-83
2023/03/27 07:58:56;;;;;;;13.23;8.40;;;;;;;15.91;69.00;99579.50;10377022;28;20587;-83
2023/03/27 08:03:58;;;;;;;17.08;7.80;;;;;;;15.65;68.60;99539.56;10376248;28;20091;-83
2023/03/27 08:08:58;;;;;;;208.18;115.88;;;;;;;16.05;68.63;99590.88;10375692;28;20038;-83
2023/03/27 08:13:59;;;;;;;28.65;13.93;;;;;;;15.50;68.05;99497.06;10376372;28;20053;-83
2023/03/27 08:19:02;;;;;;;17.90;9.73;;;;;;;16.11;67.84;99579.28;10376063;28;20073;-83
2023/03/27 08:24:03;;;;;;;21.20;12.65;;;;;;;15.43;67.30;99451.63;10376209;28;20124;-83
2023/03/27 08:29:04;;;;;;;66.53;32.53;;;;;;;16.36;67.48;99576.53;10376306;28;20034;-84
2023/03/27 08:34:05;;;;;;;38.28;22.45;;;;;;;15.85;67.26;99518.75;10375678;28;20512;-83
2023/03/27 08:39:07;;;;;;;15.25;9.85;;;;;;;16.12;67.19;99582.78;10375396;28;20052;-83
2023/03/27 08:44:13;;;;;;;18.20;9.18;;;;;;;15.97;66.65;99567.91;10374414;28;20065;-83
2023/03/27 08:49:20;;;;;;;17.40;8.63;;;;;;;15.69;66.34;99522.84;10375182;28;20048;-83
2023/03/27 08:54:29;;;;;;;12.27;8.88;;;;;;;15.92;66.01;99557.03;10374726;28;20042;-84
2023/03/27 08:59:30;;;;;;;17.35;9.15;;;;;;;16.17;66.62;99582.94;10374549;28;20383;-83
2023/03/27 09:04:53;;;;;;;20.13;8.18;;;;;;;16.11;65.66;99562.38;10371746;28;20037;-83
2023/03/27 09:10:45;;;;;;;12.68;7.97;;;;;;;16.37;65.02;99591.56;10371367;28;20041;-78
2023/03/27 09:16:20;;;;;;;11.55;6.88;;;;;;;15.87;64.55;99514.00;10316557;28;20069;-81
2023/03/27 09:21:45;;;;;;;11.80;6.95;;;;;;;15.95;65.59;99545.88;10370840;28;20045;-82
2023/03/27 09:26:46;;;;;;;16.77;6.93;;;;;;;16.00;65.99;99569.28;10382931;28;20042;-81
2023/03/27 09:31:50;;;;;;;13.02;6.13;;;;;;;15.64;66.11;99529.88;10387186;28;20129;-81
2023/03/27 09:36:53;;;;;;;9.88;5.65;;;;;;;15.97;66.18;99570.56;10388315;28;20037;-81
2023/03/27 09:41:58;;;;;;;12.05;5.75;;;;;;;16.02;65.73;99577.13;10388882;28;20046;-81
2023/03/27 09:47:06;;;;;;;15.43;6.50;;;;;;;15.60;66.59;99528.69;10387262;28;20085;-81
2023/03/27 09:52:07;;;;;;;14.30;8.93;;;;;;;15.87;67.00;99589.00;10385534;28;20042;-81
2023/03/27 09:57:11;;;;;;;11.43;7.28;;;;;;;15.44;67.40;99546.94;10388805;28;20400;-81
2023/03/27 10:02:21;;;;;;;13.93;8.82;;;;;;;15.00;67.31;99479.19;10386079;28;20141;-81
2023/03/27 10:07:24;;;;;;;15.43;8.57;;;;;;;15.39;67.05;99552.13;10386695;28;20084;-82
2023/03/27 10:12:26;;;;;;;14.35;7.25;;;;;;;15.64;67.28;99594.94;10387693;28;20088;-81
2023/03/27 10:17:37;;;;;;;14.00;7.65;;;;;;;15.64;69.43;99611.00;10388550;28;20085;-81
2023/03/27 10:22:40;;;;;;;11.25;6.50;;;;;;;15.30;71.08;99590.91;10385125;28;20264;-80
2023/03/27 10:27:42;;;;;;;9.80;6.37;;;;;;;15.36;71.14;99634.72;10386858;28;20073;-79
2023/03/27 10:32:46;;;;;;;8.82;6.18;;;;;;;15.15;72.92;99634.00;10394494;28;20280;-80
2023/03/27 10:37:49;;;;;;;12.95;6.78;;;;;;;15.14;73.36;99653.78;10395912;28;20493;-80
2023/03/27 10:42:50;;;;;;;19.38;8.65;;;;;;;14.48;74.40;99580.03;10394929;28;20041;-82
2023/03/27 10:47:56;;;;;;;13.43;9.07;;;;;;;14.81;76.42;99643.25;10395498;28;20125;-81
2023/03/27 10:53:23;;;;;;;13.65;9.98;;;;;;;14.87;81.02;99662.94;10394547;28;20046;-83
2023/03/27 10:58:37;;;;;;;18.85;9.20;;;;;;;14.51;80.73;99653.63;10386325;28;20422;-84
2023/03/27 11:03:50;;;;;;;14.55;8.20;;;;;;;14.59;81.38;99682.81;10394488;28;20033;-84
2023/03/27 11:09:04;;;;;;;12.87;7.50;;;;;;;14.50;81.97;99684.03;10378895;28;20049;-86
2023/03/27 11:14:18;;;;;;;14.35;7.32;;;;;;;14.45;83.24;99682.00;10380564;28;20071;-85
2023/03/27 11:19:43;;;;;;;12.75;7.55;;;;;;;14.53;81.91;99695.16;10378515;28;20204;-83
2023/03/27 11:25:36;;;;;;;11.65;7.60;;;;;;;14.32;84.87;99656.13;10379195;28;20103;-83
2023/03/27 11:30:47;;;;;;;11.18;7.18;;;;;;;14.57;84.39;99690.22;10368707;28;20049;-83
2023/03/27 11:35:56;;;;;;;18.35;10.20;;;;;;;14.57;83.93;99701.75;10377461;28;20103;-84
2023/03/27 11:40:57;;;;;;;9.52;7.03;;;;;;;14.46;82.58;99685.50;10376229;28;20517;-84
2023/03/27 11:46:22;;;;;;;10.82;7.45;;;;;;;14.56;84.80;99693.91;10378278;28;20054;-82
2023/03/27 11:52:00;;;;;;;10.25;7.15;;;;;;;14.58;85.05;99694.53;10384434;28;20064;-82
2023/03/27 11:57:04;;;;;;;10.65;7.40;;;;;;;14.27;82.70;99682.66;10377074;28;20042;-81
2023/03/27 12:02:30;;;;;;;7.93;6.35;;;;;;;14.44;84.57;99715.09;10376817;28;20478;-84
2023/03/27 12:07:57;;;;;;;10.68;6.78;;;;;;;14.50;84.86;99722.25;10377255;28;20056;-81
2023/03/27 12:13:22;;;;;;;11.48;7.43;;;;;;;14.44;85.33;99720.44;10377161;28;20045;-82
2023/03/27 12:18:56;;;;;;;9.88;6.80;;;;;;;14.29;84.58;99688.59;10376476;28;20042;-81
2023/03/27 12:24:12;;;;;;;15.05;8.88;;;;;;;14.49;84.70;99720.63;10376404;28;20087;-80
2023/03/27 12:29:22;;;;;;;54.08;22.98;;;;;;;14.54;85.77;99731.56;10375110;28;20042;-81
2023/03/27 12:34:32;;;;;;;48.67;28.95;;;;;;;14.66;84.85;99744.25;10374723;28;20206;-81
2023/03/27 12:39:44;;;;;;;93.30;50.20;;;;;;;14.72;85.17;99740.78;10374606;28;20052;-83
2023/03/27 12:45:04;;;;;;;40.47;25.20;;;;;;;14.92;83.80;99746.03;10372701;28;20064;-78
2023/03/27 12:50:18;;;;;;;18.60;11.57;;;;;;;14.81;83.17;99726.16;10372869;28;20072;-78
2023/03/27 13:14:25;;;;;;;10.02;6.05;;;;;;;13.58;85.05;99643.03;10530606;27;20452;-80
2023/03/27 13:19:28;;;;;;;7.90;5.47;;;;;;;14.45;83.55;99788.06;10531877;28;20048;-78
2023/03/27 13:24:32;;;;;;;8.67;6.13;;;;;;;14.52;84.19;99794.25;10532590;28;20044;-78
2023/03/27 13:29:33;;;;;;;11.50;7.73;;;;;;;14.14;83.78;99731.56;10532400;28;20086;-81
2023/03/27 13:34:40;;;;;;;8.80;7.13;;;;;;;14.61;84.76;99798.38;10531232;28;20044;-80
2023/03/27 13:39:53;;;;;;;13.57;8.52;;;;;;;14.67;86.13;99804.72;10532142;28;20458;-80
2023/03/27 13:45:15;;;;;;;10.23;7.43;;;;;;;14.34;85.62;99781.50;10531603;28;20094;-78
2023/03/27 13:50:50;;;;;;;10.25;7.22;;;;;;;13.88;86.75;99736.88;10529456;28;20040;-81
2023/03/27 13:56:14;;;;;;;9.15;6.10;;;;;;;14.15;85.14;99821.38;10531027;28;20093;-81
2023/03/27 14:01:51;;;;;;;7.28;5.88;;;;;;;13.97;85.05;99815.81;10529380;28;20074;-80
2023/03/27 14:07:01;;;;;;;7.22;4.95;;;;;;;13.70;84.95;99815.75;10497007;28;20120;-81
2023/03/27 14:12:10;;;;;;;9.40;5.80;;;;;;;13.52;85.27;99798.63;10484067;28;20382;-81
2023/03/27 14:17:49;;;;;;;10.13;6.63;;;;;;;13.47;88.37;99809.91;10446967;28;20052;-81
2023/03/27 14:23:05;;;;;;;8.88;6.45;;;;;;;13.14;88.35;99764.41;10432130;28;20051;-80
2023/03/27 14:28:09;;;;;;;10.65;6.78;;;;;;;13.09;86.89;99764.97;10419219;28;20045;-81
2023/03/27 14:33:18;;;;;;;6.82;4.82;;;;;;;13.18;87.30;99798.47;10419285;28;20072;-79
2023/03/27 14:38:24;;;;;;;7.35;4.70;;;;;;;13.11;87.28;99812.81;10419367;28;20045;-81
2023/03/27 14:43:27;;;;;;;9.90;5.38;;;;;;;13.04;87.25;99812.75;10421478;28;20477;-79
2023/03/27 14:48:32;;;;;;;8.40;4.93;;;;;;;13.12;87.55;99825.09;10418855;28;20041;-79
2023/03/27 14:54:52;;;;;;;6.43;4.43;;;;;;;12.93;87.22;99822.13;10522189;27;1456031;-80
2023/03/27 14:59:54;;;;;;;7.50;5.03;;;;;;;12.69;87.33;99807.44;10539691;28;20047;-79
2023/03/27 15:05:00;;;;;;;7.68;4.80;;;;;;;12.57;88.33;99804.47;10531967;28;20043;-79
2023/03/27 15:10:11;;;;;;;11.18;5.30;;;;;;;12.54;89.50;99810.19;10532417;28;20044;-78
2023/03/27 15:15:25;;;;;;;11.38;5.45;;;;;;;12.77;90.01;99865.91;10532117;28;20518;-78
2023/03/27 15:20:30;;;;;;;8.68;5.07;;;;;;;12.36;88.88;99809.03;10531183;28;20051;-78
2023/03/27 15:25:41;;;;;;;6.70;4.90;;;;;;;12.40;90.00;99831.59;10532229;28;20040;-79
2023/03/27 15:30:46;;;;;;;6.95;5.00;;;;;;;12.50;89.93;99875.53;10530787;28;20048;-78
2023/03/27 15:35:52;;;;;;;15.45;6.18;;;;;;;12.18;90.79;99828.94;10530617;28;20051;-79
2023/03/27 15:41:18;;;;;;;7.18;5.20;;;;;;;12.62;91.15;99910.47;10522230;28;20109;-84
2023/03/27 15:46:19;;;;;;;8.40;4.93;;;;;;;12.38;90.11;99903.69;10497349;28;20044;-88
2023/03/27 15:51:20;;;;;;;6.40;4.63;;;;;;;12.45;90.54;99917.91;10400342;28;20130;-78
2023/03/27 15:56:23;;;;;;;7.95;4.90;;;;;;;12.30;92.41;99933.13;10399862;28;20091;-85
2023/03/27 16:01:32;;;;;;;9.32;6.30;;;;;;;12.26;93.69;99947.81;10402480;28;20092;-79
2023/03/27 16:06:39;;;;;;;52.30;30.23;;;;;;;12.06;93.06;99931.66;10371583;28;20049;-69
2023/03/27 16:11:45;;;;;;;36.03;19.38;;;;;;;11.88;95.15;99924.88;10372702;28;20048;-82
2023/03/27 16:16:48;;;;;;;23.30;12.93;;;;;;;11.17;94.94;99835.97;10376747;28;20034;-82
2023/03/27 16:21:54;;;;;;;29.27;17.80;;;;;;;11.29;96.87;99895.66;10375949;28;20489;-84
2023/03/27 16:26:55;;;;;;;28.80;14.38;;;;;;;11.35;96.34;99929.47;10376225;28;20053;-84
2023/03/27 16:31:56;;;;;;;17.80;10.95;;;;;;;11.39;96.50;99948.53;10376326;28;20042;-82
2023/03/27 16:36:57;;;;;;;25.25;12.65;;;;;;;10.87;96.11;99886.44;10375729;28;20065;-83
2023/03/27 16:41:58;;;;;;;21.08;11.32;;;;;;;10.27;96.55;99797.03;10375676;28;20088;-83
2023/03/27 16:46:58;;;;;;;70.38;26.55;;;;;;;10.64;97.30;99897.09;10375372;28;20080;-83
2023/03/27 16:52:00;;;;;;;78.45;34.13;;;;;;;10.44;97.49;99872.91;10363251;28;20065;-83
2023/03/27 16:57:01;;;;;;;97.60;38.28;;;;;;;11.16;97.85;99991.19;10376097;28;20559;-84
2023/03/27 17:02:02;;;;;;;128.00;53.80;;;;;;;9.56;98.20;99740.66;10374275;28;20068;-84
2023/03/27 17:07:04;;;;;;;91.82;39.60;;;;;;;11.19;98.70;100001.44;10374349;28;20408;-84
2023/03/27 17:12:05;;;;;;;54.38;26.10;;;;;;;10.88;98.31;99959.00;10375902;28;20042;-84
2023/03/27 17:17:06;;;;;;;31.02;16.80;;;;;;;10.97;98.40;99968.56;10373065;28;20457;-84
2023/03/27 17:22:10;;;;;;;23.00;12.85;;;;;;;10.91;98.96;99956.00;10374371;28;20104;-83
2023/03/27 17:27:11;;;;;;;44.05;20.25;;;;;;;10.79;98.50;99952.94;10374440;28;20042;-83
2023/03/27 17:32:12;;;;;;;43.42;17.52;;;;;;;10.95;98.89;99997.19;10367690;28;20058;-83
2023/03/27 17:37:12;;;;;;;49.35;19.15;;;;;;;10.34;99.00;99930.72;10334172;28;20042;-83
2023/03/27 17:42:13;;;;;;;28.33;12.80;;;;;;;10.24;98.25;99956.63;10333335;28;20047;-84
2023/03/27 17:47:14;;;;;;;17.73;10.07;;;;;;;9.74;98.25;99912.78;10332805;28;20042;-83
2023/03/27 17:52:15;;;;;;;58.70;19.63;;;;;;;9.72;98.77;99931.53;10363283;28;20062;-84
2023/03/27 17:57:16;;;;;;;53.42;17.58;;;;;;;10.02;99.16;99990.94;10374596;28;20045;-84
2023/03/27 18:02:18;;;;;;;25.35;11.70;;;;;;;9.50;98.32;99964.91;10372988;28;20041;-83
2023/03/27 18:07:21;;;;;;;17.40;10.60;;;;;;;9.66;99.07;100011.75;10373446;28;20136;-83
2023/03/27 18:12:22;;;;;;;76.05;32.63;;;;;;;9.66;98.97;100003.81;10373075;28;20052;-83
2023/03/27 18:17:22;;;;;;;124.88;44.97;;;;;;;8.42;98.83;99810.81;10373871;28;20052;-84
2023/03/27 18:22:23;;;;;;;35.35;18.58;;;;;;;9.56;98.66;100014.63;10372312;28;20045;-84
2023/03/27 18:27:24;;;;;;;39.88;17.83;;;;;;;8.12;98.61;99817.56;10371709;28;20038;-85
2023/03/27 18:32:25;;;;;;;17.75;10.55;;;;;;;8.65;98.54;99941.53;10372888;28;20037;-85
2023/03/27 18:37:26;;;;;;;14.50;10.20;;;;;;;8.27;98.96;99886.53;10373863;28;20497;-85
2023/03/27 18:42:26;;;;;;;15.75;8.65;;;;;;;8.63;99.12;99942.69;10372383;28;20056;-84
2023/03/27 18:47:27;;;;;;;26.92;16.05;;;;;;;7.91;99.16;99834.75;10371435;28;20044;-85
2023/03/27 18:52:28;;;;;;;16.02;9.75;;;;;;;9.19;99.07;100038.22;10362743;28;20066;-85
2023/03/27 18:57:29;;;;;;;29.77;16.50;;;;;;;9.31;99.80;100042.19;10372944;28;20038;-85
2023/03/27 19:02:30;;;;;;;36.53;17.60;;;;;;;8.91;100.00;99964.34;10371596;28;20050;-85
2023/03/27 19:07:31;;;;;;;15.40;10.55;;;;;;;8.95;100.00;99955.09;10371867;28;20041;-85
2023/03/27 19:12:32;;;;;;;14.88;10.57;;;;;;;9.09;100.00;99965.03;10394477;28;20048;-84
2023/03/27 19:17:33;;;;;;;12.27;8.73;;;;;;;9.68;100.00;100027.53;10409710;28;20045;-82
2023/03/27 19:22:33;;;;;;;18.88;9.63;;;;;;;8.70;100.00;99850.97;10412715;28;20038;-83
2023/03/27 19:27:34;;;;;;;13.80;8.68;;;;;;;9.74;100.00;100008.28;10411899;28;20416;-82
2023/03/27 19:32:35;;;;;;;13.95;9.52;;;;;;;9.71;100.00;100003.31;10411758;28;20048;-82
2023/03/27 19:37:36;;;;;;;16.70;10.07;;;;;;;8.57;100.00;99819.72;10386585;28;20080;-82
2023/03/27 19:42:37;;;;;;;15.00;9.13;;;;;;;9.81;100.00;99996.81;10379254;28;20428;-83
2023/03/27 19:47:37;;;;;;;17.67;10.88;;;;;;;9.88;100.00;100010.22;10378941;28;20045;-82
2023/03/27 19:52:38;;;;;;;11.43;8.07;;;;;;;9.32;100.00;99916.59;10378051;28;20065;-82
2023/03/27 19:57:39;;;;;;;9.32;7.75;;;;;;;9.89;100.00;100041.03;10378451;28;20042;-82
2023/03/27 20:02:40;;;;;;;15.48;9.00;;;;;;;9.16;100.00;99936.03;10378060;28;20046;-82
2023/03/27 20:07:41;;;;;;;11.70;9.25;;;;;;;9.50;100.00;99995.91;10378277;28;20492;-82
2023/03/27 20:12:42;;;;;;;11.88;9.23;;;;;;;9.52;100.00;100000.06;10378077;28;20042;-82
2023/03/27 20:17:42;;;;;;;13.05;10.20;;;;;;;9.69;100.00;100026.50;10377470;28;20599;-81
2023/03/27 20:22:46;;;;;;;17.27;10.25;;;;;;;9.31;100.00;99952.06;10377140;28;20195;-81
2023/03/27 20:27:46;;;;;;;11.77;9.32;;;;;;;9.62;100.00;99999.84;10376869;28;20045;-81
2023/03/27 20:32:48;;;;;;;12.27;8.82;;;;;;;9.06;100.00;99922.09;10377367;28;20103;-82
2023/03/27 20:37:55;;;;;;;13.80;8.93;;;;;;;9.15;100.00;99939.66;10377139;28;20456;-82
2023/03/27 20:43:01;;;;;;;11.02;8.80;;;;;;;9.06;100.00;99922.97;10377233;28;20046;-82
2023/03/27 20:48:02;;;;;;;11.27;8.68;;;;;;;8.88;100.00;99901.97;10377282;28;20042;-81
2023/03/27 20:53:03;;;;;;;11.90;9.32;;;;;;;9.40;100.00;99984.69;10376974;28;20509;-82
2023/03/27 20:58:05;;;;;;;9.90;7.43;;;;;;;9.25;100.00;99958.84;10376272;28;20048;-82
2023/03/27 21:03:06;;;;;;;14.65;8.07;;;;;;;9.12;100.00;99972.63;10374258;28;20443;-82
2023/03/27 21:08:07;;;;;;;20.80;11.52;;;;;;;9.03;100.00;99956.88;10373948;28;20045;-82
2023/03/27 21:13:08;;;;;;;25.40;13.70;;;;;;;8.79;100.00;99899.47;10375781;28;20061;-82
2023/03/27 21:18:09;;;;;;;16.85;10.05;;;;;;;9.13;100.00;99939.00;10374950;28;20096;-82
2023/03/27 21:23:10;;;;;;;12.43;9.15;;;;;;;8.97;100.00;99913.34;10375517;28;20081;-82
2023/03/27 21:28:11;;;;;;;21.27;10.07;;;;;;;9.02;100.00;99923.44;10375217;28;20037;-81
2023/03/27 21:33:14;;;;;;;11.48;8.77;;;;;;;8.78;100.00;99873.97;10375308;28;20452;-82
2023/03/27 21:38:16;;;;;;;12.82;9.35;;;;;;;9.45;100.00;99982.31;10374135;28;20042;-82
2023/03/27 21:43:17;;;;;;;17.42;9.48;;;;;;;8.89;100.00;99913.38;10373959;28;20046;-82
2023/03/27 21:48:18;;;;;;;15.25;8.95;;;;;;;9.43;100.00;100008.19;10373124;28;20038;-82
2023/03/27 21:53:18;;;;;;;16.98;10.25;;;;;;;9.04;100.00;99919.63;10374182;28;20053;-82
2023/03/27 21:58:22;;;;;;;17.75;8.25;;;;;;;9.00;100.00;99899.75;10374122;28;20049;-82
2023/03/27 22:03:24;;;;;;;18.38;7.80;;;;;;;9.16;100.00;99917.47;10356003;28;20592;-82
2023/03/27 22:08:26;;;;;;;20.42;8.77;;;;;;;9.71;100.00;100003.31;10373632;28;20060;-82
2023/03/27 22:13:27;;;;;;;17.52;9.85;;;;;;;9.24;100.00;99928.03;10372711;28;20048;-81
2023/03/27 22:18:30;;;;;;;14.75;9.35;;;;;;;9.22;100.00;99935.34;10373433;28;20029;-82
2023/03/27 22:23:31;;;;;;;12.70;8.63;;;;;;;9.65;100.00;99988.09;10373322;28;20401;-82
2023/03/27 22:28:31;;;;;;;12.55;8.93;;;;;;;8.87;100.00;99873.78;10373564;28;20038;-82
2023/03/27 22:33:32;;;;;;;15.48;8.73;;;;;;;8.96;100.00;99884.38;10372686;28;20042;-82
2023/03/27 22:38:33;;;;;;;11.65;8.05;;;;;;;9.15;100.00;99923.75;10373647;28;20111;-82
2023/03/27 22:43:34;;;;;;;12.13;8.07;;;;;;;9.27;100.00;99948.06;10372269;28;20050;-82
2023/03/27 22:48:35;;;;;;;16.65;10.38;;;;;;;8.58;100.00;99836.44;10373040;28;20489;-83
2023/03/27 22:53:36;;;;;;;12.00;9.13;;;;;;;9.19;100.00;99975.44;10372548;28;20057;-82
2023/03/27 22:58:37;;;;;;;11.55;8.50;;;;;;;8.88;100.00;99917.00;10372301;28;20100;-82
2023/03/27 23:03:38;;;;;;;10.05;7.35;;;;;;;8.57;100.00;99848.84;10372603;28;20451;-82
2023/03/27 23:08:39;;;;;;;9.43;7.85;;;;;;;9.28;100.00;99963.00;10371613;28;20042;-82
2023/03/27 23:13:40;;;;;;;10.05;7.72;;;;;;;8.79;100.00;99899.47;10402296;28;20037;-82
2023/03/27 23:18:40;;;;;;;9.65;7.82;;;;;;;9.10;100.00;99929.56;10420619;28;20496;-82
2023/03/27 23:23:41;;;;;;;8.80;6.70;;;;;;;8.80;100.00;99862.22;10421349;28;20064;-82
2023/03/27 23:28:43;;;;;;;9.23;6.90;;;;;;;9.47;100.00;99981.16;10420124;28;20049;-82
2023/03/27 23:33:46;;;;;;;17.27;7.38;;;;;;;9.30;100.00;99968.94;10421102;28;20034;-82
2023/03/27 23:38:47;;;;;;;11.10;8.23;;;;;;;9.17;100.00;99956.22;10420418;28;20431;-82
2023/03/27 23:43:48;;;;;;;12.55;7.70;;;;;;;7.87;100.00;99777.06;10419663;28;20050;-81